sensor_id;sensor_type;location;lat;lon;timestamp;pressure;altitude;pressure_sealevel;temperature;humidity
78117;BME280;69042;59.120;37.904;2023-08-17T00:00:26;100886.13;;;19.72;75.80
78117;BME280;69042;59.120;37.904;2023-08-17T00:02:53;100885.25;;;19.72;75.68
78117;BME280;69042;59.120;37.904;2023-08-17T00:05:19;100880.69;;;19.74;75.30
78117;BME280;69042;59.120;37.904;2023-08-17T00:07:45;100889.72;;;19.71;75.74
78117;BME280;69042;59.120;37.904;2023-08-17T00:10:11;100889.81;;;19.70;75.55
78117;BME280;69042;59.120;37.904;2023-08-17T00:12:38;100889.91;;;19.68;75.75
78117;BME280;69042;59.120;37.904;2023-08-17T00:15:04;100885.53;;;19.67;75.46
78117;BME280;69042;59.120;37.904;2023-08-17T00:17:31;100889.03;;;19.68;75.71
78117;BME280;69042;59.120;37.904;2023-08-17T00:19:57;100889.16;;;19.66;75.21
78117;BME280;69042;59.120;37.904;2023-08-17T00:22:23;100892.56;;;19.68;74.67
78117;BME280;69042;59.120;37.904;2023-08-17T00:24:49;100895.19;;;19.68;74.49
78117;BME280;69042;59.120;37.904;2023-08-17T00:27:15;100900.50;;;19.68;74.13
78117;BME280;69042;59.120;37.904;2023-08-17T00:29:42;100895.28;;;19.67;74.08
78117;BME280;69042;59.120;37.904;2023-08-17T00:32:09;100898.91;;;19.66;73.82
78117;BME280;69042;59.120;37.904;2023-08-17T00:34:35;100899.09;;;19.63;73.98
78117;BME280;69042;59.120;37.904;2023-08-17T00:37:02;100902.72;;;19.62;73.72
78117;BME280;69042;59.120;37.904;2023-08-17T00:39:29;100900.16;;;19.60;73.95
78117;BME280;69042;59.120;37.904;2023-08-17T00:41:55;100901.97;;;19.60;73.31
78117;BME280;69042;59.120;37.904;2023-08-17T00:44:21;100892.44;;;19.57;73.27
78117;BME280;69042;59.120;37.904;2023-08-17T00:46:47;100897.72;;;19.57;73.26
78117;BME280;69042;59.120;37.904;2023-08-17T00:49:14;100896.84;;;19.56;73.45
78117;BME280;69042;59.120;37.904;2023-08-17T00:51:41;100901.31;;;19.56;73.53
78117;BME280;69042;59.120;37.904;2023-08-17T00:54:07;100897.81;;;19.55;73.44
78117;BME280;69042;59.120;37.904;2023-08-17T00:56:35;100891.47;;;19.58;72.98
78117;BME280;69042;59.120;37.904;2023-08-17T00:59:02;100889.88;;;19.55;72.81
78117;BME280;69042;59.120;37.904;2023-08-17T01:01:28;100893.50;;;19.54;73.13
78117;BME280;69042;59.120;37.904;2023-08-17T01:03:54;100892.63;;;19.54;73.26
78117;BME280;69042;59.120;37.904;2023-08-17T01:06:20;100895.16;;;19.55;72.79
78117;BME280;69042;59.120;37.904;2023-08-17T01:08:47;100896.84;;;19.56;73.12
78117;BME280;69042;59.120;37.904;2023-08-17T01:11:41;100892.31;;;19.59;72.84
78117;BME280;69042;59.120;37.904;2023-08-17T01:14:35;100898.47;;;19.59;72.73
78117;BME280;69042;59.120;37.904;2023-08-17T01:17:14;100889.78;;;19.57;72.93
78117;BME280;69042;59.120;37.904;2023-08-17T01:19:43;100888.81;;;19.58;73.06
78117;BME280;69042;59.120;37.904;2023-08-17T01:22:12;100888.91;;;19.56;73.00
78117;BME280;69042;59.120;37.904;2023-08-17T01:24:40;100889.66;;;19.59;73.25
78117;BME280;69042;59.120;37.904;2023-08-17T01:27:07;100884.34;;;19.59;72.93
78117;BME280;69042;59.120;37.904;2023-08-17T01:29:34;100883.41;;;19.60;72.80
78117;BME280;69042;59.120;37.904;2023-08-17T01:32:30;100887.75;;;19.61;72.92
78117;BME280;69042;59.120;37.904;2023-08-17T01:35:16;100875.47;;;19.60;72.74
78117;BME280;69042;59.120;37.904;2023-08-17T01:37:44;100876.41;;;19.59;72.69
78117;BME280;69042;59.120;37.904;2023-08-17T01:40:12;100887.13;;;19.57;72.88
78117;BME280;69042;59.120;37.904;2023-08-17T01:42:41;100876.63;;;19.55;73.23
78117;BME280;69042;59.120;37.904;2023-08-17T01:45:07;100883.59;;;19.56;73.55
78117;BME280;69042;59.120;37.904;2023-08-17T01:47:35;100881.81;;;19.57;73.10
78117;BME280;69042;59.120;37.904;2023-08-17T01:50:01;100887.13;;;19.57;73.29
78117;BME280;69042;59.120;37.904;2023-08-17T01:52:28;100881.81;;;19.57;73.76
78117;BME280;69042;59.120;37.904;2023-08-17T01:54:54;100876.63;;;19.55;73.78
78117;BME280;69042;59.120;37.904;2023-08-17T01:57:20;100881.81;;;19.57;73.59
78117;BME280;69042;59.120;37.904;2023-08-17T01:59:46;100880.84;;;19.58;73.67
78117;BME280;69042;59.120;37.904;2023-08-17T02:02:13;100880.00;;;19.58;74.22
78117;BME280;69042;59.120;37.904;2023-08-17T02:04:40;100881.69;;;19.59;73.94
78117;BME280;69042;59.120;37.904;2023-08-17T02:07:08;100885.31;;;19.58;74.05
78117;BME280;69042;59.120;37.904;2023-08-17T02:09:34;100887.88;;;19.59;74.43
78117;BME280;69042;59.120;37.904;2023-08-17T02:12:01;100885.22;;;19.59;74.53
78117;BME280;69042;59.120;37.904;2023-08-17T02:14:27;100888.72;;;19.60;74.69
78117;BME280;69042;59.120;37.904;2023-08-17T02:16:53;100892.22;;;19.60;74.36
78117;BME280;69042;59.120;37.904;2023-08-17T02:19:19;100894.03;;;19.60;74.71
78117;BME280;69042;59.120;37.904;2023-08-17T02:21:46;100896.66;;;19.60;74.56
78117;BME280;69042;59.120;37.904;2023-08-17T02:24:12;100891.28;;;19.61;74.52
78117;BME280;69042;59.120;37.904;2023-08-17T02:26:38;100901.75;;;19.63;74.16
78117;BME280;69042;59.120;37.904;2023-08-17T02:29:06;100894.75;;;19.62;74.50
78117;BME280;69042;59.120;37.904;2023-08-17T02:31:32;100896.25;;;19.66;74.69
78117;BME280;69042;59.120;37.904;2023-08-17T02:33:58;100895.97;;;19.70;74.55
78117;BME280;69042;59.120;37.904;2023-08-17T02:36:27;100898.31;;;19.75;74.43
78117;BME280;69042;59.120;37.904;2023-08-17T02:38:53;100897.25;;;19.78;73.99
78117;BME280;69042;59.120;37.904;2023-08-17T02:41:19;100896.94;;;19.82;74.12
78117;BME280;69042;59.120;37.904;2023-08-17T02:43:45;100898.53;;;19.85;73.82
78117;BME280;69042;59.120;37.904;2023-08-17T02:46:12;100899.19;;;19.88;73.64
78117;BME280;69042;59.120;37.904;2023-08-17T02:48:38;100897.16;;;19.92;73.39
78117;BME280;69042;59.120;37.904;2023-08-17T02:51:05;100899.63;;;19.95;73.47
78117;BME280;69042;59.120;37.904;2023-08-17T02:53:31;100901.06;;;19.99;73.61
78117;BME280;69042;59.120;37.904;2023-08-17T02:55:57;100891.09;;;20.03;73.56
78117;BME280;69042;59.120;37.904;2023-08-17T02:58:23;100892.47;;;20.08;73.47
78117;BME280;69042;59.120;37.904;2023-08-17T03:00:52;100899.28;;;20.12;73.77
78117;BME280;69042;59.120;37.904;2023-08-17T03:03:20;100897.16;;;20.17;73.10
78117;BME280;69042;59.120;37.904;2023-08-17T03:05:46;100897.69;;;20.23;72.81
78117;BME280;69042;59.120;37.904;2023-08-17T03:08:12;100896.28;;;20.30;72.83
78117;BME280;69042;59.120;37.904;2023-08-17T03:10:38;100888.00;;;20.34;72.81
78117;BME280;69042;59.120;37.904;2023-08-17T03:13:04;100885.75;;;20.41;72.67
78117;BME280;69042;59.120;37.904;2023-08-17T03:15:31;100891.47;;;20.48;72.38
78117;BME280;69042;59.120;37.904;2023-08-17T03:17:57;100889.25;;;20.54;72.40
78117;BME280;69042;59.120;37.904;2023-08-17T03:20:23;100892.34;;;20.61;72.16
78117;BME280;69042;59.120;37.904;2023-08-17T03:22:49;100887.53;;;20.66;72.29
78117;BME280;69042;59.120;37.904;2023-08-17T03:25:16;100886.25;;;20.72;72.19
78117;BME280;69042;59.120;37.904;2023-08-17T03:27:45;100879.63;;;20.77;71.90
78117;BME280;69042;59.120;37.904;2023-08-17T03:30:11;100889.00;;;20.83;72.01
78117;BME280;69042;59.120;37.904;2023-08-17T03:32:38;100888.53;;;20.89;71.78
78117;BME280;69042;59.120;37.904;2023-08-17T03:35:04;100883.84;;;20.93;71.55
78117;BME280;69042;59.120;37.904;2023-08-17T03:37:30;100884.34;;;20.98;71.59
78117;BME280;69042;59.120;37.904;2023-08-17T03:39:57;100882.22;;;21.03;71.18
78117;BME280;69042;59.120;37.904;2023-08-17T03:42:23;100888.97;;;21.07;71.31
78117;BME280;69042;59.120;37.904;2023-08-17T03:44:49;100893.09;;;21.11;71.04
78117;BME280;69042;59.120;37.904;2023-08-17T03:47:16;100891.81;;;21.17;70.86
78117;BME280;69042;59.120;37.904;2023-08-17T03:49:42;100891.47;;;21.21;70.40
78117;BME280;69042;59.120;37.904;2023-08-17T03:52:09;100882.31;;;21.26;70.43
78117;BME280;69042;59.120;37.904;2023-08-17T03:54:35;100882.81;;;21.31;70.27
78117;BME280;69042;59.120;37.904;2023-08-17T03:57:02;100880.66;;;21.36;70.34
78117;BME280;69042;59.120;37.904;2023-08-17T03:59:28;100882.03;;;21.41;70.32
78117;BME280;69042;59.120;37.904;2023-08-17T04:01:54;100897.66;;;21.46;70.10
78117;BME280;69042;59.120;37.904;2023-08-17T04:04:20;100894.63;;;21.51;69.82
78117;BME280;69042;59.120;37.904;2023-08-17T04:06:47;100894.41;;;21.54;69.84
78117;BME280;69042;59.120;37.904;2023-08-17T04:09:13;100895.88;;;21.58;69.53
78117;BME280;69042;59.120;37.904;2023-08-17T04:11:39;100897.34;;;21.62;69.68
78117;BME280;69042;59.120;37.904;2023-08-17T04:14:06;100904.13;;;21.66;69.37
78117;BME280;69042;59.120;37.904;2023-08-17T04:16:33;100901.13;;;21.71;69.47
78117;BME280;69042;59.120;37.904;2023-08-17T04:18:59;100901.50;;;21.77;69.42
78117;BME280;69042;59.120;37.904;2023-08-17T04:21:26;100907.41;;;21.81;68.94
78117;BME280;69042;59.120;37.904;2023-08-17T04:23:52;100899.19;;;21.84;68.88
78117;BME280;69042;59.120;37.904;2023-08-17T04:26:19;100907.78;;;21.88;69.14
78117;BME280;69042;59.120;37.904;2023-08-17T04:28:46;100898.59;;;21.92;68.49
78117;BME280;69042;59.120;37.904;2023-08-17T04:31:14;100890.50;;;21.93;68.45
78117;BME280;69042;59.120;37.904;2023-08-17T04:33:43;100893.19;;;21.93;68.53
78117;BME280;69042;59.120;37.904;2023-08-17T04:36:09;100891.09;;;21.97;68.34
78117;BME280;69042;59.120;37.904;2023-08-17T04:38:35;100883.97;;;21.97;68.44
78117;BME280;69042;59.120;37.904;2023-08-17T04:41:01;100877.44;;;22.01;68.32
78117;BME280;69042;59.120;37.904;2023-08-17T04:43:28;100883.38;;;22.05;68.07
78117;BME280;69042;59.120;37.904;2023-08-17T04:45:54;100879.63;;;22.08;68.38
78117;BME280;69042;59.120;37.904;2023-08-17T04:48:21;100885.69;;;22.10;67.95
78117;BME280;69042;59.120;37.904;2023-08-17T04:50:48;100881.09;;;22.12;68.21
78117;BME280;69042;59.120;37.904;2023-08-17T04:53:14;100880.72;;;22.16;68.28
78117;BME280;69042;59.120;37.904;2023-08-17T04:55:40;100879.63;;;22.19;67.77
78117;BME280;69042;59.120;37.904;2023-08-17T04:58:06;100875.91;;;22.21;67.91
78117;BME280;69042;59.120;37.904;2023-08-17T05:00:33;100889.09;;;22.23;67.84
78117;BME280;69042;59.120;37.904;2023-08-17T05:02:59;100883.53;;;22.26;67.88
78117;BME280;69042;59.120;37.904;2023-08-17T05:05:31;100880.50;;;22.31;67.69
78117;BME280;69042;59.120;37.904;2023-08-17T05:07:59;100880.13;;;22.35;67.78
78117;BME280;69042;59.120;37.904;2023-08-17T05:10:27;100880.63;;;22.40;67.89
78117;BME280;69042;59.120;37.904;2023-08-17T05:12:53;100878.31;;;22.47;67.44
78117;BME280;69042;59.120;37.904;2023-08-17T05:15:21;100875.03;;;22.55;67.44
78117;BME280;69042;59.120;37.904;2023-08-17T05:17:47;100882.53;;;22.61;67.39
78117;BME280;69042;59.120;37.904;2023-08-17T05:20:14;100884.69;;;22.67;67.14
78117;BME280;69042;59.120;37.904;2023-08-17T05:22:40;100883.25;;;22.74;66.88
78117;BME280;69042;59.120;37.904;2023-08-17T05:25:07;100891.59;;;22.81;66.68
78117;BME280;69042;59.120;37.904;2023-08-17T05:27:35;100889.63;;;22.83;66.05
78117;BME280;69042;59.120;37.904;2023-08-17T05:30:01;100881.25;;;22.87;65.96
78117;BME280;69042;59.120;37.904;2023-08-17T05:32:27;100885.50;;;22.90;65.80
78117;BME280;69042;59.120;37.904;2023-08-17T05:34:54;100885.88;;;22.97;65.49
78117;BME280;69042;59.120;37.904;2023-08-17T05:37:20;100881.88;;;23.02;65.52
78117;BME280;69042;59.120;37.904;2023-08-17T05:39:47;100884.88;;;23.09;65.23
78117;BME280;69042;59.120;37.904;2023-08-17T05:42:14;100886.19;;;23.15;64.95
78117;BME280;69042;59.120;37.904;2023-08-17T05:44:40;100885.94;;;23.18;64.45
78117;BME280;69042;59.120;37.904;2023-08-17T05:47:06;100887.38;;;23.22;64.41
78117;BME280;69042;59.120;37.904;2023-08-17T05:49:33;100888.81;;;23.26;64.08
78117;BME280;69042;59.120;37.904;2023-08-17T05:51:59;100890.22;;;23.30;64.16
78117;BME280;69042;59.120;37.904;2023-08-17T05:54:25;100885.50;;;23.34;63.89
78117;BME280;69042;59.120;37.904;2023-08-17T05:56:51;100890.19;;;23.41;63.38
78117;BME280;69042;59.120;37.904;2023-08-17T05:59:17;100889.94;;;23.44;63.08
78117;BME280;69042;59.120;37.904;2023-08-17T06:01:43;100891.38;;;23.48;62.92
78117;BME280;69042;59.120;37.904;2023-08-17T06:04:09;100888.16;;;23.55;63.09
78117;BME280;69042;59.120;37.904;2023-08-17T06:06:36;100891.16;;;23.61;63.13
78117;BME280;69042;59.120;37.904;2023-08-17T06:09:02;100892.34;;;23.68;62.73
78117;BME280;69042;59.120;37.904;2023-08-17T06:11:28;100894.53;;;23.75;62.53
78117;BME280;69042;59.120;37.904;2023-08-17T06:13:54;100900.06;;;23.83;62.65
78117;BME280;69042;59.120;37.904;2023-08-17T06:16:20;100886.31;;;23.87;61.99
78117;BME280;69042;59.120;37.904;2023-08-17T06:18:47;100891.13;;;23.94;62.18
78117;BME280;69042;59.120;37.904;2023-08-17T06:21:13;100888.06;;;23.98;61.71
78117;BME280;69042;59.120;37.904;2023-08-17T06:23:39;100885.00;;;24.03;61.37
78117;BME280;69042;59.120;37.904;2023-08-17T06:26:05;100886.41;;;24.07;61.58
78117;BME280;69042;59.120;37.904;2023-08-17T06:28:31;100883.47;;;24.10;60.84
78117;BME280;69042;59.120;37.904;2023-08-17T06:30:57;100878.03;;;24.12;61.08
78117;BME280;69042;59.120;37.904;2023-08-17T06:33:24;100879.28;;;24.17;61.07
78117;BME280;69042;59.120;37.904;2023-08-17T06:35:50;100885.22;;;24.21;60.90
78117;BME280;69042;59.120;37.904;2023-08-17T06:38:17;100892.56;;;24.28;60.57
78117;BME280;69042;59.120;37.904;2023-08-17T06:40:43;100883.28;;;24.33;60.45
78117;BME280;69042;59.120;37.904;2023-08-17T06:43:09;100891.31;;;24.33;60.26
78117;BME280;69042;59.120;37.904;2023-08-17T06:45:35;100888.09;;;24.39;59.94
78117;BME280;69042;59.120;37.904;2023-08-17T06:48:02;100877.84;;;24.44;60.22
78117;BME280;69042;59.120;37.904;2023-08-17T06:50:28;100884.38;;;24.51;60.49
78117;BME280;69042;59.120;37.904;2023-08-17T06:52:54;100881.16;;;24.57;60.00
78117;BME280;69042;59.120;37.904;2023-08-17T06:55:20;100878.78;;;24.64;60.28
78117;BME280;69042;59.120;37.904;2023-08-17T06:57:47;100881.03;;;24.68;60.26
78117;BME280;69042;59.120;37.904;2023-08-17T07:00:15;100880.34;;;24.76;59.99
78117;BME280;69042;59.120;37.904;2023-08-17T07:02:42;100878.81;;;24.83;59.57
78117;BME280;69042;59.120;37.904;2023-08-17T07:05:08;100870.53;;;24.86;59.78
78117;BME280;69042;59.120;37.904;2023-08-17T07:07:36;100870.09;;;24.91;59.89
78117;BME280;69042;59.120;37.904;2023-08-17T07:10:02;100862.50;;;24.96;59.67
78117;BME280;69042;59.120;37.904;2023-08-17T07:12:28;100872.50;;;25.04;59.32
78117;BME280;69042;59.120;37.904;2023-08-17T07:14:54;100870.28;;;25.09;59.31
78117;BME280;69042;59.120;37.904;2023-08-17T07:17:21;100868.13;;;25.12;59.08
78117;BME280;69042;59.120;37.904;2023-08-17T07:19:47;100866.88;;;25.17;59.05
78117;BME280;69042;59.120;37.904;2023-08-17T07:22:13;100863.97;;;25.20;58.71
78117;BME280;69042;59.120;37.904;2023-08-17T07:24:39;100861.13;;;25.21;58.23
78117;BME280;69042;59.120;37.904;2023-08-17T07:27:05;100861.28;;;25.20;58.38
78117;BME280;69042;59.120;37.904;2023-08-17T07:29:31;100865.34;;;25.24;58.30
78117;BME280;69042;59.120;37.904;2023-08-17T07:31:58;100869.44;;;25.28;58.38
78117;BME280;69042;59.120;37.904;2023-08-17T07:34:28;100860.84;;;25.34;58.42
78117;BME280;69042;59.120;37.904;2023-08-17T07:36:54;100862.97;;;25.40;58.33
78117;BME280;69042;59.120;37.904;2023-08-17T07:39:21;100855.34;;;25.45;57.79
78117;BME280;69042;59.120;37.904;2023-08-17T07:41:47;100854.91;;;25.50;58.06
78117;BME280;69042;59.120;37.904;2023-08-17T07:44:13;100853.78;;;25.52;57.75
78117;BME280;69042;59.120;37.904;2023-08-17T07:46:40;100849.84;;;25.57;57.32
78117;BME280;69042;59.120;37.904;2023-08-17T07:49:06;100847.72;;;25.60;57.73
78117;BME280;69042;59.120;37.904;2023-08-17T07:51:32;100846.28;;;25.66;57.57
78117;BME280;69042;59.120;37.904;2023-08-17T07:54:00;100848.22;;;25.73;57.40
78117;BME280;69042;59.120;37.904;2023-08-17T07:56:26;100850.47;;;25.78;57.44
78117;BME280;69042;59.120;37.904;2023-08-17T07:58:53;100844.72;;;25.83;57.12
78117;BME280;69042;59.120;37.904;2023-08-17T08:01:20;100845.25;;;25.86;56.42
78117;BME280;69042;59.120;37.904;2023-08-17T08:03:46;100839.88;;;25.86;56.25
78117;BME280;69042;59.120;37.904;2023-08-17T08:06:12;100836.09;;;25.89;57.12
78117;BME280;69042;59.120;37.904;2023-08-17T08:08:40;100832.16;;;25.93;56.49
78117;BME280;69042;59.120;37.904;2023-08-17T08:11:06;100834.38;;;25.98;56.87
78117;BME280;69042;59.120;37.904;2023-08-17T08:13:32;100828.59;;;26.02;56.80
78117;BME280;69042;59.120;37.904;2023-08-17T08:15:59;100835.03;;;26.09;56.98
78117;BME280;69042;59.120;37.904;2023-08-17T08:18:25;100841.34;;;26.18;56.49
78117;BME280;69042;59.120;37.904;2023-08-17T08:20:51;100825.53;;;26.25;56.72
78117;BME280;69042;59.120;37.904;2023-08-17T08:23:18;100828.31;;;26.33;56.41
78117;BME280;69042;59.120;37.904;2023-08-17T08:25:44;100825.88;;;26.40;55.96
78117;BME280;69042;59.120;37.904;2023-08-17T08:28:10;100828.25;;;26.43;55.76
78117;BME280;69042;59.120;37.904;2023-08-17T08:30:36;100827.66;;;26.49;55.31
78117;BME280;69042;59.120;37.904;2023-08-17T08:33:03;100826.34;;;26.53;55.24
78117;BME280;69042;59.120;37.904;2023-08-17T08:35:29;100818.72;;;26.58;55.11
78117;BME280;69042;59.120;37.904;2023-08-17T08:37:55;100817.44;;;26.62;54.97
78117;BME280;69042;59.120;37.904;2023-08-17T08:40:27;100811.31;;;26.70;55.07
78117;BME280;69042;59.120;37.904;2023-08-17T08:42:53;100812.69;;;26.74;54.67
78117;BME280;69042;59.120;37.904;2023-08-17T08:45:21;100824.81;;;26.78;54.34
78117;BME280;69042;59.120;37.904;2023-08-17T08:47:49;100810.09;;;26.82;54.20
78117;BME280;69042;59.120;37.904;2023-08-17T08:50:20;100816.81;;;26.86;53.71
78117;BME280;69042;59.120;37.904;2023-08-17T08:53:00;100805.81;;;26.89;54.24
78117;BME280;69042;59.120;37.904;2023-08-17T08:55:31;100810.69;;;26.94;53.93
78117;BME280;69042;59.120;37.904;2023-08-17T08:58:00;100804.03;;;26.98;53.26
78117;BME280;69042;59.120;37.904;2023-08-17T09:00:26;100801.19;;;26.99;53.07
78117;BME280;69042;59.120;37.904;2023-08-17T09:02:53;100805.25;;;27.04;53.30
78117;BME280;69042;59.120;37.904;2023-08-17T09:05:21;100803.09;;;27.07;53.04
78117;BME280;69042;59.120;37.904;2023-08-17T09:07:48;100804.63;;;27.10;53.02
78117;BME280;69042;59.120;37.904;2023-08-17T09:10:15;100805.19;;;27.13;52.98
78117;BME280;69042;59.120;37.904;2023-08-17T09:12:44;100799.34;;;27.18;52.49
78117;BME280;69042;59.120;37.904;2023-08-17T09:15:11;100801.00;;;27.19;52.60
78117;BME280;69042;59.120;37.904;2023-08-17T09:17:37;100803.84;;;27.17;52.40
78117;BME280;69042;59.120;37.904;2023-08-17T09:20:04;100803.00;;;27.17;52.93
78117;BME280;69042;59.120;37.904;2023-08-17T09:22:40;100810.63;;;27.22;52.94
78117;BME280;69042;59.120;37.904;2023-08-17T09:25:08;100810.00;;;27.28;52.91
78117;BME280;69042;59.120;37.904;2023-08-17T09:27:35;100801.00;;;27.37;52.87
78117;BME280;69042;59.120;37.904;2023-08-17T09:30:05;100803.75;;;27.45;53.43
78117;BME280;69042;59.120;37.904;2023-08-17T09:32:33;100805.28;;;27.48;53.01
78117;BME280;69042;59.120;37.904;2023-08-17T09:35:03;100804.81;;;27.52;53.24
78117;BME280;69042;59.120;37.904;2023-08-17T09:37:32;100801.66;;;27.57;53.07
78117;BME280;69042;59.120;37.904;2023-08-17T09:39:58;100802.16;;;27.60;52.48
78117;BME280;69042;59.120;37.904;2023-08-17T09:42:25;100798.16;;;27.65;52.64
78117;BME280;69042;59.120;37.904;2023-08-17T09:44:52;100789.47;;;27.71;52.78
78117;BME280;69042;59.120;37.904;2023-08-17T09:47:19;100790.00;;;27.74;52.63
78117;BME280;69042;59.120;37.904;2023-08-17T09:49:52;100788.66;;;27.78;52.49
78117;BME280;69042;59.120;37.904;2023-08-17T09:52:21;100786.22;;;27.85;52.26
78117;BME280;69042;59.120;37.904;2023-08-17T09:54:48;100785.91;;;27.88;52.02
78117;BME280;69042;59.120;37.904;2023-08-17T09:57:14;100783.56;;;27.93;52.25
78117;BME280;69042;59.120;37.904;2023-08-17T09:59:41;100786.59;;;27.98;52.01
78117;BME280;69042;59.120;37.904;2023-08-17T10:02:26;100791.69;;;28.10;52.10
78117;BME280;69042;59.120;37.904;2023-08-17T10:04:54;100790.06;;;28.17;51.77
78117;BME280;69042;59.120;37.904;2023-08-17T10:07:29;100787.72;;;28.22;51.41
78117;BME280;69042;59.120;37.904;2023-08-17T10:10:03;100785.53;;;28.26;51.90
78117;BME280;69042;59.120;37.904;2023-08-17T10:12:34;100777.16;;;28.29;51.33
78117;BME280;69042;59.120;37.904;2023-08-17T10:15:04;100784.38;;;28.36;51.64
78117;BME280;69042;59.120;37.904;2023-08-17T10:17:58;100781.41;;;28.48;51.78
78117;BME280;69042;59.120;37.904;2023-08-17T10:20:29;100781.59;;;28.54;51.37
78117;BME280;69042;59.120;37.904;2023-08-17T10:23:05;100779.09;;;28.61;51.37
78117;BME280;69042;59.120;37.904;2023-08-17T10:25:35;100776.72;;;28.66;51.13
78117;BME280;69042;59.120;37.904;2023-08-17T10:28:02;100782.47;;;28.71;51.33
78117;BME280;69042;59.120;37.904;2023-08-17T10:30:29;100783.16;;;28.73;51.22
78117;BME280;69042;59.120;37.904;2023-08-17T10:32:56;100779.09;;;28.77;51.40
78117;BME280;69042;59.120;37.904;2023-08-17T10:35:22;100777.75;;;28.81;50.70
78117;BME280;69042;59.120;37.904;2023-08-17T10:37:49;100781.66;;;28.87;50.61
78117;BME280;69042;59.120;37.904;2023-08-17T10:40:15;100777.28;;;28.94;50.57
78117;BME280;69042;59.120;37.904;2023-08-17T10:42:42;100769.38;;;29.01;50.72
78117;BME280;69042;59.120;37.904;2023-08-17T10:45:31;100763.00;;;29.10;50.36
78117;BME280;69042;59.120;37.904;2023-08-17T10:48:26;100761.13;;;29.19;50.01
78117;BME280;69042;59.120;37.904;2023-08-17T10:51:04;100769.69;;;29.31;49.84
78117;BME280;69042;59.120;37.904;2023-08-17T10:53:34;100769.34;;;29.42;50.29
78117;BME280;69042;59.120;37.904;2023-08-17T10:56:06;100757.69;;;29.50;50.62
78117;BME280;69042;59.120;37.904;2023-08-17T10:58:33;100761.34;;;29.65;50.84
78117;BME280;69042;59.120;37.904;2023-08-17T11:00:59;100759.81;;;29.79;50.94
78117;BME280;69042;59.120;37.904;2023-08-17T11:03:26;100771.22;;;29.97;50.70
78117;BME280;69042;59.120;37.904;2023-08-17T11:05:54;100758.44;;;30.22;49.92
78117;BME280;69042;59.120;37.904;2023-08-17T11:08:42;100757.59;;;30.53;49.66
78117;BME280;69042;59.120;37.904;2023-08-17T11:11:20;100751.81;;;30.87;49.13
78117;BME280;69042;59.120;37.904;2023-08-17T11:13:46;100751.50;;;31.20;49.45
78117;BME280;69042;59.120;37.904;2023-08-17T11:16:16;100747.75;;;31.59;48.87
78117;BME280;69042;59.120;37.904;2023-08-17T11:18:46;100738.28;;;32.00;48.22
78117;BME280;69042;59.120;37.904;2023-08-17T11:21:12;100740.72;;;32.31;47.14
78117;BME280;69042;59.120;37.904;2023-08-17T11:23:40;100737.09;;;32.60;46.20
78117;BME280;69042;59.120;37.904;2023-08-17T11:26:07;100736.97;;;32.96;45.85
78117;BME280;69042;59.120;37.904;2023-08-17T11:28:35;100724.97;;;33.34;45.24
78117;BME280;69042;59.120;37.904;2023-08-17T11:31:08;100721.44;;;33.68;44.36
78117;BME280;69042;59.120;37.904;2023-08-17T11:33:36;100711.16;;;34.05;43.46
78117;BME280;69042;59.120;37.904;2023-08-17T11:36:05;100705.84;;;34.38;42.88
78117;BME280;69042;59.120;37.904;2023-08-17T11:38:39;100718.59;;;34.78;42.36
78117;BME280;69042;59.120;37.904;2023-08-17T11:41:07;100699.78;;;35.16;42.18
78117;BME280;69042;59.120;37.904;2023-08-17T11:43:36;100707.81;;;35.70;42.05
78117;BME280;69042;59.120;37.904;2023-08-17T11:46:04;100698.19;;;36.44;41.26
78117;BME280;69042;59.120;37.904;2023-08-17T11:48:31;100696.59;;;37.30;40.36
78117;BME280;69042;59.120;37.904;2023-08-17T11:50:57;100686.59;;;38.09;38.81
78117;BME280;69042;59.120;37.904;2023-08-17T11:53:24;100696.97;;;38.85;38.02
78117;BME280;69042;59.120;37.904;2023-08-17T11:55:51;100688.78;;;39.61;36.74
78117;BME280;69042;59.120;37.904;2023-08-17T11:58:17;100681.78;;;40.39;35.29
78117;BME280;69042;59.120;37.904;2023-08-17T12:00:44;100667.44;;;41.05;34.36
78117;BME280;69042;59.120;37.904;2023-08-17T12:03:14;100671.03;;;41.71;33.43
78117;BME280;69042;59.120;37.904;2023-08-17T12:05:43;100670.25;;;42.30;32.05
78117;BME280;69042;59.120;37.904;2023-08-17T12:08:10;100668.09;;;42.70;31.57
78117;BME280;69042;59.120;37.904;2023-08-17T12:10:37;100665.59;;;43.11;30.41
78117;BME280;69042;59.120;37.904;2023-08-17T12:13:04;100657.81;;;43.55;30.14
78117;BME280;69042;59.120;37.904;2023-08-17T12:15:31;100650.22;;;44.09;29.33
78117;BME280;69042;59.120;37.904;2023-08-17T12:18:01;100646.59;;;44.64;28.37
78117;BME280;69042;59.120;37.904;2023-08-17T12:20:27;100646.22;;;45.07;27.84
78117;BME280;69042;59.120;37.904;2023-08-17T12:22:54;100646.09;;;45.33;27.15
78117;BME280;69042;59.120;37.904;2023-08-17T12:25:23;100641.53;;;45.67;27.22
78117;BME280;69042;59.120;37.904;2023-08-17T12:27:49;100638.53;;;45.98;26.57
78117;BME280;69042;59.120;37.904;2023-08-17T12:30:29;100644.41;;;46.21;26.41
78117;BME280;69042;59.120;37.904;2023-08-17T12:32:58;100634.50;;;46.49;25.44
78117;BME280;69042;59.120;37.904;2023-08-17T12:35:25;100637.94;;;46.65;25.29
78117;BME280;69042;59.120;37.904;2023-08-17T12:37:53;100642.19;;;46.81;25.09
78117;BME280;69042;59.120;37.904;2023-08-17T12:40:19;100641.28;;;47.10;24.43
78117;BME280;69042;59.120;37.904;2023-08-17T12:42:46;100636.84;;;47.33;25.80